CheckWX is a tool to help pilots better visualize weather data.  It is not intended as a substitute for an official pre-flight weather briefing.

21:37:44 UTC

CYXT TAF
Terrace Airport
Terrace, Canada
TAF CYXT 231838Z 2319/2407 03010G20KT P6SM FEW040 SCT070 RMK NXT FCST BY 240100Z

Feb-23@
19:00 UTC

Feb-23 @ 19:00 UTC

Feb-24@
07:00 UTC

Feb-24 @ 07:00 UTC

TAF CYXT 231838Z 2319/2407 03010G20KT P6SM FEW040 SCT070 RMK NXT FCST BY 240100Z
Wind
  • 030° at 10 KTS
  • {Gusting to 20 KTS
Cloud Levels
  • Few at 4,000' AGL
  • Scattered at 7,000' AGL